createdAt,value
2022-10-04T00:01:00.783Z,7.03
2022-10-04T00:03:29.760Z,6.57
2022-10-04T00:05:59.176Z,6.83
2022-10-04T00:08:30.927Z,6.97
2022-10-04T00:11:07.352Z,6.20
2022-10-04T00:13:35.495Z,6.70
2022-10-04T00:16:04.575Z,7.10
2022-10-04T00:18:40.498Z,6.53
2022-10-04T00:21:09.800Z,7.13
2022-10-04T00:23:45.953Z,6.73
2022-10-04T00:27:10.710Z,6.20
2022-10-04T00:29:41.947Z,6.13
2022-10-04T00:32:30.725Z,6.43
2022-10-04T00:34:59.095Z,6.20
2022-10-04T00:37:27.883Z,6.80
2022-10-04T00:40:01.873Z,5.90
2022-10-04T00:42:37.780Z,6.60
2022-10-04T00:45:12.805Z,6.00
2022-10-04T00:48:10.717Z,6.03
2022-10-04T00:50:40.827Z,6.37
2022-10-04T00:53:16.889Z,6.50
2022-10-04T00:55:48.724Z,6.63
2022-10-04T00:58:19.946Z,6.73
2022-10-04T01:00:49.848Z,6.20
2022-10-04T01:03:22.151Z,5.80
2022-10-04T01:05:52.544Z,5.97
2022-10-04T01:08:25.624Z,5.90
2022-10-04T01:10:55.631Z,5.93
2022-10-04T01:13:24.605Z,5.97
2022-10-04T01:15:55.355Z,6.30
2022-10-04T01:18:31.117Z,6.17
2022-10-04T01:21:00.983Z,5.97
2022-10-04T01:23:40.580Z,5.63
2022-10-04T01:26:46.114Z,6.93
2022-10-04T01:29:16.542Z,5.80
2022-10-04T01:31:46.021Z,6.00
2022-10-04T01:34:15.786Z,6.27
2022-10-04T01:36:44.247Z,5.80
2022-10-04T01:39:13.773Z,6.27
2022-10-04T01:41:47.034Z,6.10
2022-10-04T01:44:20.853Z,6.30
2022-10-04T01:46:50.479Z,6.17
2022-10-04T01:49:21.718Z,6.27
2022-10-04T01:51:56.448Z,5.80
2022-10-04T01:54:33.399Z,5.93
2022-10-04T01:57:06.598Z,6.40
2022-10-04T01:59:38.740Z,6.00
2022-10-04T02:02:09.113Z,6.17
2022-10-04T02:04:39.547Z,5.93
2022-10-04T02:07:12.505Z,5.90
2022-10-04T02:09:44.584Z,6.03
2022-10-04T02:12:16.193Z,5.67
2022-10-04T02:14:45.653Z,5.67
2022-10-04T02:17:13.210Z,6.20
2022-10-04T02:19:42.997Z,5.93
2022-10-04T02:22:11.997Z,6.47
2022-10-04T02:24:43.694Z,5.90
2022-10-04T02:27:11.226Z,5.93
2022-10-04T02:29:38.913Z,5.80
2022-10-04T02:32:25.285Z,6.40
2022-10-04T02:34:54.852Z,6.47
2022-10-04T02:37:22.863Z,6.10
2022-10-04T02:39:54.833Z,6.03
2022-10-04T02:42:29.792Z,6.27
2022-10-04T02:45:00.749Z,5.90
2022-10-04T02:47:31.344Z,6.40
2022-10-04T02:50:01.611Z,6.37
2022-10-04T02:52:31.641Z,6.67
2022-10-04T02:55:03.640Z,6.13
2022-10-04T02:57:33.759Z,5.73
2022-10-04T03:00:14.277Z,6.03
2022-10-04T03:02:41.913Z,6.00
2022-10-04T03:05:11.778Z,5.80
2022-10-04T03:07:40.426Z,6.53
2022-10-04T03:10:12.390Z,6.40
2022-10-04T03:12:40.181Z,6.40
2022-10-04T03:15:08.883Z,6.50
2022-10-04T03:17:36.446Z,6.17
2022-10-04T03:20:05.242Z,5.83
2022-10-04T03:22:32.924Z,6.07
2022-10-04T03:25:01.454Z,6.10
2022-10-04T03:27:33.879Z,6.60
2022-10-04T03:30:01.837Z,5.90
2022-10-04T03:32:30.348Z,6.50
2022-10-04T03:34:59.078Z,6.70
2022-10-04T03:37:27.460Z,5.53
2022-10-04T03:39:56.289Z,6.10
2022-10-04T03:42:26.491Z,5.90
2022-10-04T03:44:58.317Z,6.07
2022-10-04T03:47:28.778Z,6.60
2022-10-04T03:49:57.175Z,5.77
2022-10-04T03:52:26.159Z,6.17
2022-10-04T03:54:55.775Z,6.17
2022-10-04T03:57:23.718Z,5.77
2022-10-04T03:59:51.770Z,6.47
2022-10-04T04:02:28.500Z,6.30
2022-10-04T04:05:03.823Z,6.50
2022-10-04T04:07:36.741Z,6.17
2022-10-04T04:10:11.078Z,5.80
2022-10-04T04:12:42.233Z,5.73
2022-10-04T04:15:11.808Z,5.80
2022-10-04T04:17:42.212Z,6.23
2022-10-04T04:20:23.336Z,5.53
2022-10-04T04:22:58.164Z,6.50
2022-10-04T04:25:26.964Z,5.70
2022-10-04T04:27:57.587Z,6.57
2022-10-04T04:30:25.174Z,6.17
2022-10-04T04:32:56.689Z,7.47
2022-10-04T04:35:26.273Z,6.57
2022-10-04T04:38:05.598Z,6.43
2022-10-04T04:40:34.178Z,6.33
2022-10-04T04:43:03.266Z,6.63
2022-10-04T04:45:31.971Z,6.00
2022-10-04T04:48:03.490Z,6.03
2022-10-04T04:50:33.196Z,5.60
2022-10-04T04:53:05.592Z,5.90
2022-10-04T04:55:56.334Z,5.40
2022-10-04T04:58:25.626Z,5.50
2022-10-04T05:00:56.956Z,6.20
2022-10-04T05:03:26.345Z,5.63
2022-10-04T05:05:54.993Z,5.70
2022-10-04T05:08:23.885Z,5.40
2022-10-04T05:10:55.326Z,5.70
2022-10-04T05:13:23.450Z,5.57
2022-10-04T05:15:54.605Z,5.67
2022-10-04T05:18:31.378Z,5.37
2022-10-04T05:21:04.277Z,5.40
2022-10-04T05:23:31.773Z,5.33
2022-10-04T05:26:02.265Z,5.77
2022-10-04T05:28:30.652Z,5.83
2022-10-04T05:31:17.057Z,5.57
2022-10-04T05:33:50.003Z,5.60
2022-10-04T05:36:33.101Z,6.13
2022-10-04T05:39:06.592Z,5.97
2022-10-04T05:41:39.293Z,5.97
2022-10-04T05:44:20.807Z,6.67
2022-10-04T05:46:48.469Z,6.73
2022-10-04T05:49:19.502Z,6.20
2022-10-04T05:51:51.506Z,6.30
2022-10-04T05:54:21.346Z,6.50
2022-10-04T05:57:12.821Z,6.10
2022-10-04T06:00:04.399Z,5.80
2022-10-04T06:02:44.061Z,6.93
2022-10-04T06:05:15.885Z,5.70
2022-10-04T06:07:48.769Z,6.33
2022-10-04T06:10:43.346Z,6.50
2022-10-04T06:13:22.023Z,5.70
2022-10-04T06:16:03.981Z,5.87
2022-10-04T06:18:43.154Z,6.10
2022-10-04T06:21:19.965Z,6.20
2022-10-04T06:23:53.848Z,6.70
2022-10-04T06:26:24.975Z,5.50
2022-10-04T06:28:55.889Z,6.40
2022-10-04T06:31:39.333Z,5.97
2022-10-04T06:34:26.270Z,6.17
2022-10-04T06:37:09.560Z,5.70
2022-10-04T06:39:54.250Z,6.17
2022-10-04T06:42:35.730Z,5.47
2022-10-04T06:45:13.811Z,5.80
2022-10-04T06:47:54.439Z,5.43
2022-10-04T06:50:27.511Z,5.40
2022-10-04T06:53:05.716Z,5.53
2022-10-04T06:55:44.001Z,5.37
2022-10-04T06:58:29.373Z,6.27
2022-10-04T07:01:00.458Z,6.03
2022-10-04T07:03:33.093Z,6.40
2022-10-04T07:06:04.910Z,6.60
2022-10-04T07:08:39.882Z,6.90
2022-10-04T07:11:14.601Z,6.57
2022-10-04T07:13:52.637Z,6.33
2022-10-04T07:16:29.898Z,6.63
2022-10-04T07:19:01.802Z,6.70
2022-10-04T07:21:36.897Z,6.50
2022-10-04T07:24:11.031Z,6.53
2022-10-04T07:26:43.231Z,7.20
2022-10-04T07:29:22.689Z,6.87
2022-10-04T07:31:53.785Z,6.57
2022-10-04T07:34:23.861Z,6.50
2022-10-04T07:36:54.334Z,7.00
2022-10-04T07:39:26.529Z,7.13
2022-10-04T07:41:55.758Z,6.77
2022-10-04T07:44:32.674Z,6.90
2022-10-04T07:47:04.094Z,7.00
2022-10-04T07:49:38.872Z,7.30
2022-10-04T07:52:42.536Z,6.67
2022-10-04T07:55:20.046Z,6.93
2022-10-04T07:57:54.945Z,7.07
2022-10-04T08:00:24.888Z,7.73
2022-10-04T08:03:05.807Z,7.30
2022-10-04T08:05:37.508Z,8.50
2022-10-04T08:08:21.553Z,7.73
2022-10-04T08:10:57.636Z,8.90
2022-10-04T08:13:29.968Z,8.87
2022-10-04T08:16:01.290Z,8.47
2022-10-04T08:18:39.936Z,8.10
2022-10-04T08:21:08.957Z,7.47
2022-10-04T08:23:54.091Z,8.67
2022-10-04T08:26:33.801Z,7.50
2022-10-04T08:29:32.879Z,8.00
2022-10-04T08:32:06.175Z,7.20
2022-10-04T08:34:56.493Z,7.97
2022-10-04T08:37:31.321Z,7.93
2022-10-04T08:40:18.785Z,7.33
2022-10-04T08:43:21.966Z,7.70
2022-10-04T08:46:30.201Z,7.17
2022-10-04T08:49:21.432Z,7.90
2022-10-04T08:52:22.718Z,7.30
2022-10-04T08:55:32.161Z,7.47
2022-10-04T08:58:16.634Z,7.67
2022-10-04T09:01:00.222Z,7.87
2022-10-04T09:04:01.451Z,6.73
2022-10-04T09:06:42.775Z,6.80
2022-10-04T09:09:35.231Z,7.07
2022-10-04T09:12:13.421Z,6.40
2022-10-04T09:15:04.709Z,5.90
2022-10-04T09:17:40.378Z,6.90
2022-10-04T09:20:39.169Z,6.83
2022-10-04T09:23:16.860Z,6.20
2022-10-04T09:25:50.012Z,6.17
2022-10-04T09:28:44.601Z,5.87
2022-10-04T09:31:37.067Z,5.27
2022-10-04T09:34:23.246Z,5.20
2022-10-04T09:37:06.780Z,5.67
2022-10-04T09:39:56.154Z,5.87
2022-10-04T09:42:42.382Z,5.93
2022-10-04T09:45:27.473Z,5.70
2022-10-04T09:48:17.207Z,6.27
2022-10-04T09:51:08.350Z,5.77
2022-10-04T09:53:46.342Z,5.87
2022-10-04T09:56:27.747Z,6.03
2022-10-04T09:59:35.242Z,5.33
2022-10-04T10:02:28.825Z,5.87
2022-10-04T10:05:16.701Z,5.57
2022-10-04T10:07:49.946Z,5.07
2022-10-04T10:10:40.584Z,5.87
2022-10-04T10:13:40.610Z,4.47
2022-10-04T10:16:20.109Z,5.03
2022-10-04T10:18:59.144Z,4.57
2022-10-04T10:21:49.539Z,4.70
2022-10-04T10:24:30.006Z,4.70
2022-10-04T10:27:23.839Z,4.33
2022-10-04T10:30:09.846Z,4.13
2022-10-04T10:32:45.862Z,4.47
2022-10-04T10:35:38.738Z,4.17
2022-10-04T10:38:26.077Z,3.93
2022-10-04T10:41:08.984Z,4.00
2022-10-04T10:43:46.507Z,4.47
2022-10-04T10:46:23.498Z,4.33
2022-10-04T10:49:09.770Z,3.90
2022-10-04T10:51:56.766Z,5.10
2022-10-04T10:54:57.893Z,4.47
2022-10-04T10:57:40.406Z,3.83
2022-10-04T11:00:20.697Z,3.77
2022-10-04T11:03:24.641Z,3.80
2022-10-04T11:06:10.618Z,3.63
2022-10-04T11:09:02.386Z,3.40
2022-10-04T11:11:41.873Z,3.57
2022-10-04T11:14:43.637Z,4.00
2022-10-04T11:17:50.517Z,4.23
2022-10-04T11:20:32.667Z,3.80
2022-10-04T11:23:15.761Z,3.60
2022-10-04T11:26:15.500Z,3.70
2022-10-04T11:28:47.562Z,3.47
2022-10-04T11:31:41.027Z,3.27
2022-10-04T11:34:45.198Z,3.20
2022-10-04T11:37:17.181Z,3.70
2022-10-04T11:39:54.190Z,4.07
2022-10-04T11:42:30.078Z,3.70
2022-10-04T11:45:17.504Z,3.93
2022-10-04T11:47:55.548Z,4.23
2022-10-04T11:50:33.890Z,3.43
2022-10-04T11:53:25.786Z,4.10
2022-10-04T11:56:10.124Z,4.20
2022-10-04T11:58:48.876Z,4.63
2022-10-04T12:01:50.882Z,4.53
2022-10-04T12:04:39.879Z,4.40
2022-10-04T12:07:27.501Z,4.30
2022-10-04T12:10:01.654Z,4.17
2022-10-04T12:12:39.435Z,4.50
2022-10-04T12:15:52.600Z,4.53
2022-10-04T12:19:20.876Z,4.30
2022-10-04T12:21:57.215Z,3.73
2022-10-04T12:24:52.425Z,4.30
2022-10-04T12:27:39.141Z,3.63
2022-10-04T12:30:25.348Z,3.90
2022-10-04T12:33:02.429Z,3.60
2022-10-04T12:35:36.257Z,3.40
2022-10-04T12:38:32.384Z,3.13
2022-10-04T12:41:04.745Z,3.63
2022-10-04T12:43:38.331Z,4.00
2022-10-04T12:46:17.254Z,3.57
2022-10-04T12:48:58.012Z,3.57
2022-10-04T12:51:38.058Z,3.40
2022-10-04T12:54:15.749Z,3.83
2022-10-04T12:56:48.469Z,3.53
2022-10-04T12:59:32.600Z,3.30
2022-10-04T13:02:08.017Z,3.50
2022-10-04T13:04:38.911Z,3.23
2022-10-04T13:07:19.746Z,3.50
2022-10-04T13:10:22.620Z,3.17
2022-10-04T13:13:19.555Z,3.63
2022-10-04T13:18:46.904Z,3.70
2022-10-04T13:21:22.029Z,3.37
2022-10-04T13:23:58.110Z,3.70
2022-10-04T13:26:37.713Z,3.70
2022-10-04T13:29:08.481Z,3.20
2022-10-04T13:31:39.730Z,3.20
2022-10-04T13:34:15.856Z,3.20
2022-10-04T13:37:00.445Z,3.40
2022-10-04T13:39:42.770Z,3.43
2022-10-04T13:42:24.092Z,2.97
2022-10-04T13:45:10.366Z,3.40
2022-10-04T13:47:48.350Z,3.10
2022-10-04T13:50:30.383Z,3.17
2022-10-04T13:53:24.775Z,3.20
2022-10-04T13:56:15.864Z,3.77
2022-10-04T13:58:48.161Z,3.53
2022-10-04T14:01:33.769Z,3.63
2022-10-04T14:04:12.449Z,3.23
2022-10-04T14:07:00.478Z,3.13
2022-10-04T14:09:47.067Z,3.50
2022-10-04T14:12:37.085Z,3.13
2022-10-04T14:15:46.914Z,3.10
2022-10-04T14:18:38.756Z,3.47
2022-10-04T14:21:33.862Z,3.10
2022-10-04T14:24:46.938Z,3.93
2022-10-04T14:27:37.344Z,3.47
2022-10-04T14:30:21.197Z,3.00
2022-10-04T14:33:18.892Z,3.27
2022-10-04T14:35:52.966Z,3.27
2022-10-04T14:38:52.472Z,3.30
2022-10-04T14:41:46.509Z,3.10
2022-10-04T14:44:51.241Z,4.10
2022-10-04T14:47:42.739Z,3.20
2022-10-04T14:50:25.826Z,3.47
2022-10-04T14:53:06.361Z,2.93
2022-10-04T14:55:50.306Z,3.30
2022-10-04T14:58:21.219Z,3.10
2022-10-04T15:01:06.023Z,3.40
2022-10-04T15:03:40.520Z,3.30
2022-10-04T15:06:35.942Z,3.03
2022-10-04T15:09:25.277Z,3.53
2022-10-04T15:15:03.143Z,3.43
2022-10-04T15:17:36.376Z,3.07
2022-10-04T15:20:08.076Z,3.83
2022-10-04T15:22:42.691Z,3.07
2022-10-04T15:25:39.064Z,3.00
2022-10-04T15:28:09.491Z,3.50
2022-10-04T15:30:47.480Z,2.90
2022-10-04T15:33:23.313Z,3.30
2022-10-04T15:36:13.505Z,2.97
2022-10-04T15:38:50.617Z,2.77
2022-10-04T15:41:20.261Z,2.83
2022-10-04T15:44:15.213Z,3.23
2022-10-04T15:46:47.701Z,3.37
2022-10-04T15:49:29.266Z,3.20
2022-10-04T15:52:07.487Z,3.37
2022-10-04T15:54:51.965Z,3.50
2022-10-04T15:57:31.249Z,3.83
2022-10-04T16:00:08.892Z,3.60
2022-10-04T16:03:03.417Z,4.20
2022-10-04T16:05:39.273Z,3.80
2022-10-04T16:08:25.239Z,3.57
2022-10-04T16:11:05.011Z,4.07
2022-10-04T16:13:56.695Z,3.20
2022-10-04T16:16:58.344Z,4.03
2022-10-04T16:19:45.482Z,3.57
2022-10-04T16:22:16.117Z,3.20
2022-10-04T16:24:48.825Z,3.53
2022-10-04T16:28:05.778Z,3.60
2022-10-04T16:30:38.447Z,3.23
2022-10-04T16:33:26.645Z,4.20
2022-10-04T16:36:07.174Z,3.90
2022-10-04T16:38:57.101Z,3.77
2022-10-04T16:41:33.425Z,4.13
2022-10-04T16:44:03.936Z,4.13
2022-10-04T16:46:36.975Z,3.90
2022-10-04T16:49:20.118Z,4.70
2022-10-04T16:52:03.174Z,5.27
2022-10-04T16:54:49.776Z,5.00
2022-10-04T16:57:22.444Z,5.37
2022-10-04T16:59:58.743Z,6.17
2022-10-04T17:02:50.037Z,4.87
2022-10-04T17:05:25.503Z,4.87
2022-10-04T17:08:04.762Z,5.10
2022-10-04T17:10:37.286Z,4.40
2022-10-04T17:13:17.337Z,5.13
2022-10-04T17:15:50.122Z,4.47
2022-10-04T17:18:21.184Z,4.53
2022-10-04T17:20:58.113Z,4.53
2022-10-04T17:23:53.321Z,4.37
2022-10-04T17:26:31.878Z,4.17
2022-10-04T17:29:04.386Z,4.30
2022-10-04T17:31:41.064Z,5.37
2022-10-04T17:34:14.634Z,5.47
2022-10-04T17:36:44.416Z,4.57
2022-10-04T17:39:26.954Z,6.03
2022-10-04T17:42:03.711Z,5.53
2022-10-04T17:44:43.782Z,5.63
2022-10-04T17:47:15.497Z,5.27
2022-10-04T17:50:11.250Z,5.00
2022-10-04T17:53:01.052Z,5.00
2022-10-04T17:55:39.192Z,5.60
2022-10-04T17:58:13.765Z,5.07
2022-10-04T18:00:53.128Z,6.13
2022-10-04T18:03:25.562Z,5.23
2022-10-04T18:05:55.803Z,4.70
2022-10-04T18:08:35.647Z,4.80
2022-10-04T18:11:05.991Z,4.73
2022-10-04T18:13:36.014Z,5.47
2022-10-04T18:16:10.415Z,5.13
2022-10-04T18:18:44.051Z,4.60
2022-10-04T18:21:23.742Z,5.00
2022-10-04T18:23:57.414Z,4.87
2022-10-04T18:26:27.226Z,4.53
2022-10-04T18:28:55.342Z,4.53
2022-10-04T18:31:39.106Z,5.70
2022-10-04T18:34:27.385Z,5.43
2022-10-04T18:37:06.594Z,5.63
2022-10-04T18:39:45.375Z,5.17
2022-10-04T18:42:23.430Z,8.13
2022-10-04T18:44:59.055Z,5.37
2022-10-04T18:47:33.986Z,6.73
2022-10-04T18:50:10.324Z,6.73
2022-10-04T18:52:44.201Z,6.40
2022-10-04T18:55:26.387Z,6.80
2022-10-04T18:58:19.997Z,11.73
2022-10-04T19:01:12.473Z,9.07
2022-10-04T19:03:46.655Z,10.60
2022-10-04T19:06:20.056Z,6.83
2022-10-04T19:08:57.893Z,7.53
2022-10-04T19:11:28.380Z,6.90
2022-10-04T19:14:02.740Z,7.77
2022-10-04T19:16:38.944Z,7.20
2022-10-04T19:19:27.439Z,7.27
2022-10-04T19:22:02.092Z,6.53
2022-10-04T19:24:41.630Z,8.23
2022-10-04T19:27:16.605Z,7.80
2022-10-04T19:29:55.758Z,7.10
2022-10-04T19:32:30.501Z,7.20
2022-10-04T19:35:05.149Z,7.93
2022-10-04T19:37:38.961Z,7.93
2022-10-04T19:40:09.863Z,12.07
2022-10-04T19:42:43.730Z,10.37
2022-10-04T19:45:24.995Z,9.57
2022-10-04T19:47:56.457Z,11.63
2022-10-04T19:50:25.652Z,11.73
2022-10-04T19:52:58.701Z,10.70
2022-10-04T19:55:35.453Z,10.83
2022-10-04T19:58:17.606Z,11.47
2022-10-04T20:00:45.366Z,13.63
2022-10-04T20:03:13.888Z,17.53
2022-10-04T20:05:45.634Z,15.10
2022-10-04T20:08:15.956Z,14.70
2022-10-04T20:10:44.516Z,25.10
2022-10-04T20:13:23.480Z,19.47
2022-10-04T20:15:56.114Z,17.27
2022-10-04T20:18:52.623Z,14.97
2022-10-04T20:21:32.008Z,14.70
2022-10-04T20:24:01.559Z,13.50
2022-10-04T20:27:03.223Z,11.07
2022-10-04T20:30:06.270Z,11.40
2022-10-04T20:33:02.201Z,12.33
2022-10-04T20:36:08.217Z,10.67
2022-10-04T20:39:04.886Z,10.50
2022-10-04T20:42:22.266Z,10.23
2022-10-04T20:44:55.181Z,10.30
2022-10-04T20:47:33.260Z,10.03
2022-10-04T20:50:01.706Z,10.30
2022-10-04T20:52:30.874Z,9.70
2022-10-04T20:55:00.111Z,10.00
2022-10-04T20:57:30.598Z,9.30
2022-10-04T20:59:59.300Z,8.47
2022-10-04T21:02:28.441Z,8.67
2022-10-04T21:04:58.398Z,8.97
2022-10-04T21:07:27.101Z,8.90
2022-10-04T21:09:54.728Z,8.77
2022-10-04T21:12:31.583Z,8.03
2022-10-04T21:15:05.084Z,8.30
2022-10-04T21:17:38.114Z,7.93
2022-10-04T21:20:07.143Z,9.00
2022-10-04T21:22:38.656Z,8.53
2022-10-04T21:25:40.571Z,8.73
2022-10-04T21:28:33.935Z,8.53
2022-10-04T21:31:02.850Z,8.17
2022-10-04T21:33:32.554Z,8.50
2022-10-04T21:36:00.330Z,8.70
2022-10-04T21:38:28.544Z,9.43
2022-10-04T21:40:56.639Z,9.17
2022-10-04T21:43:24.596Z,8.80
2022-10-04T21:45:53.663Z,8.13
2022-10-04T21:48:25.173Z,7.77
2022-10-04T21:50:54.198Z,7.50
2022-10-04T21:53:21.851Z,7.33
2022-10-04T21:55:49.379Z,7.03
2022-10-04T21:58:16.993Z,6.60
2022-10-04T22:00:44.664Z,7.10
2022-10-04T22:03:13.547Z,7.20
2022-10-04T22:05:41.131Z,6.77
2022-10-04T22:08:08.690Z,6.10
2022-10-04T22:10:36.325Z,6.53
2022-10-04T22:13:03.897Z,6.90
2022-10-04T22:15:31.429Z,6.90
2022-10-04T22:17:58.978Z,6.83
2022-10-04T22:20:28.439Z,6.53
2022-10-04T22:22:57.474Z,6.40
2022-10-04T22:25:27.386Z,6.03
2022-10-04T22:27:55.288Z,6.10
2022-10-04T22:30:26.331Z,6.90
2022-10-04T22:32:55.921Z,6.30
2022-10-04T22:35:23.519Z,6.40
2022-10-04T22:37:52.688Z,6.17
2022-10-04T22:40:22.083Z,6.93
2022-10-04T22:42:53.699Z,6.70
2022-10-04T22:45:23.694Z,6.40
2022-10-04T22:47:52.241Z,6.17
2022-10-04T22:50:32.375Z,6.57
2022-10-04T22:53:04.922Z,5.83
2022-10-04T22:55:32.564Z,6.93
2022-10-04T22:58:00.218Z,6.57
2022-10-04T23:00:28.334Z,6.20
2022-10-04T23:02:56.357Z,6.63
2022-10-04T23:05:24.078Z,5.83
2022-10-04T23:07:51.597Z,6.40
2022-10-04T23:10:20.834Z,6.53
2022-10-04T23:12:50.619Z,6.70
2022-10-04T23:15:20.157Z,6.70
2022-10-04T23:17:54.061Z,7.10
2022-10-04T23:20:22.113Z,6.83
2022-10-04T23:22:50.884Z,7.00
2022-10-04T23:25:24.664Z,6.90
2022-10-04T23:27:52.300Z,6.50
2022-10-04T23:30:22.569Z,6.90
2022-10-04T23:32:51.865Z,6.90
2022-10-04T23:35:21.812Z,6.73
2022-10-04T23:37:49.988Z,6.50
2022-10-04T23:40:20.323Z,6.70
2022-10-04T23:42:50.704Z,7.17
2022-10-04T23:45:20.165Z,6.60
2022-10-04T23:47:49.705Z,6.87
2022-10-04T23:50:26.086Z,6.67
2022-10-04T23:52:55.216Z,6.60
2022-10-04T23:55:25.094Z,6.87
2022-10-04T23:57:53.945Z,6.53
